createdAt,value
2018-08-11T00:05:01.297Z,0.73
2018-08-11T00:10:06.613Z,1.37
2018-08-11T00:15:13.017Z,2.53
2018-08-11T00:20:19.822Z,1.27
2018-08-11T00:25:23.629Z,0.90
2018-08-11T00:30:29.297Z,1.07
2018-08-11T00:35:33.148Z,3.47
2018-08-11T00:40:36.771Z,2.67
2018-08-11T00:45:40.586Z,2.87
2018-08-11T00:50:44.187Z,2.57
2018-08-11T00:55:47.806Z,1.30
2018-08-11T01:00:51.458Z,0.80
2018-08-11T01:05:55.276Z,4.70
2018-08-11T01:10:59.024Z,0.90
2018-08-11T01:16:02.619Z,2.60
2018-08-11T01:21:06.845Z,2.07
2018-08-11T01:26:11.122Z,2.03
2018-08-11T01:31:14.949Z,2.37
2018-08-11T01:36:18.598Z,2.67
2018-08-11T01:41:22.390Z,3.80
2018-08-11T01:46:26.115Z,2.10
2018-08-11T01:51:29.914Z,1.20
2018-08-11T01:56:33.559Z,3.43
2018-08-11T02:01:37.086Z,1.47
2018-08-11T02:06:40.666Z,3.40
2018-08-11T02:11:44.252Z,1.67
2018-08-11T02:16:47.974Z,2.10
2018-08-11T02:21:51.597Z,2.00
2018-08-11T02:26:55.356Z,1.47
2018-08-11T02:31:59.022Z,2.90
2018-08-11T02:37:02.796Z,1.57
2018-08-11T02:42:06.374Z,0.90
2018-08-11T02:47:09.975Z,1.93
2018-08-11T02:52:13.529Z,0.40
2018-08-11T02:57:17.158Z,0.40
2018-08-11T03:02:20.980Z,1.33
2018-08-11T03:07:24.671Z,1.00
2018-08-11T03:12:28.262Z,3.33
2018-08-11T03:17:31.869Z,3.13
2018-08-11T03:22:35.664Z,0.67
2018-08-11T03:27:39.963Z,0.77
2018-08-11T03:32:44.153Z,1.10
2018-08-11T03:37:47.725Z,0.73
2018-08-11T03:42:51.876Z,0.83
2018-08-11T03:47:55.443Z,3.50
2018-08-11T03:52:58.925Z,1.00
2018-08-11T03:58:06.689Z,0.73
2018-08-11T04:03:10.250Z,2.30
2018-08-11T04:08:13.943Z,4.00
2018-08-11T04:13:17.705Z,1.40
2018-08-11T04:18:21.421Z,1.10
2018-08-11T04:23:24.962Z,3.53
2018-08-11T04:28:28.538Z,2.00
2018-08-11T04:33:32.289Z,1.43
2018-08-11T04:38:35.872Z,2.83
2018-08-11T04:43:39.529Z,4.27
2018-08-11T04:48:43.274Z,1.67
2018-08-11T04:53:47.845Z,2.67
2018-08-11T04:58:51.807Z,1.70
2018-08-11T05:03:55.794Z,2.73
2018-08-11T05:08:59.451Z,3.13
2018-08-11T05:14:03.009Z,4.67
2018-08-11T05:19:07.233Z,4.40
2018-08-11T05:24:10.740Z,5.27
2018-08-11T05:29:14.574Z,9.30
2018-08-11T05:34:18.259Z,8.63
2018-08-11T05:39:21.881Z,11.70
2018-08-11T05:44:25.437Z,9.47
2018-08-11T05:49:29.146Z,10.77
2018-08-11T05:54:32.708Z,9.20
2018-08-11T05:59:36.974Z,8.97
2018-08-11T06:04:49.596Z,10.17
2018-08-11T06:09:53.209Z,10.03
2018-08-11T06:14:56.910Z,12.37
2018-08-11T06:20:02.384Z,11.83
2018-08-11T06:25:08.295Z,14.77
2018-08-11T06:30:13.770Z,15.43
2018-08-11T06:35:17.593Z,16.20
2018-08-11T06:40:21.319Z,15.50
2018-08-11T06:45:25.168Z,15.60
2018-08-11T06:50:28.861Z,18.03
2018-08-11T06:55:32.521Z,18.87
2018-08-11T07:00:36.146Z,19.17
2018-08-11T07:05:39.722Z,16.13
2018-08-11T07:10:43.457Z,15.13
2018-08-11T07:15:48.329Z,15.50
2018-08-11T07:20:52.147Z,16.53
2018-08-11T07:25:55.822Z,15.67
2018-08-11T07:30:59.490Z,13.53
2018-08-11T07:36:03.109Z,12.03
2018-08-11T07:41:06.965Z,14.57
2018-08-11T07:46:10.839Z,17.13
2018-08-11T07:51:14.506Z,12.43
2018-08-11T07:56:18.338Z,13.03
2018-08-11T08:01:21.988Z,12.30
2018-08-11T08:06:25.604Z,9.83
2018-08-11T08:11:35.883Z,11.37
2018-08-11T08:16:39.547Z,9.33
2018-08-11T08:21:43.128Z,10.50
2018-08-11T08:26:46.701Z,9.50
2018-08-11T08:31:50.340Z,9.77
2018-08-11T08:36:54.167Z,8.63
2018-08-11T08:41:57.983Z,9.23
2018-08-11T08:47:01.505Z,9.47
2018-08-11T08:52:05.244Z,11.77
2018-08-11T08:57:08.859Z,10.50
2018-08-11T09:02:12.502Z,7.20
2018-08-11T09:07:16.037Z,6.87
2018-08-11T09:12:19.609Z,5.77
2018-08-11T09:17:23.174Z,7.00
2018-08-11T09:22:26.780Z,6.17
2018-08-11T09:27:30.463Z,7.93
2018-08-11T09:32:34.031Z,5.53
2018-08-11T09:37:37.565Z,7.00
2018-08-11T09:42:41.162Z,6.90
2018-08-11T09:47:47.441Z,7.37
2018-08-11T09:52:51.395Z,6.37
2018-08-11T09:57:54.941Z,4.27
2018-08-11T10:02:58.556Z,4.13
2018-08-11T10:08:02.163Z,3.67
2018-08-11T10:13:05.954Z,3.93
2018-08-11T10:18:09.578Z,4.50
2018-08-11T10:23:13.345Z,5.60
2018-08-11T10:28:16.845Z,4.47
2018-08-11T10:33:20.610Z,4.80
2018-08-11T10:38:24.085Z,5.23
2018-08-11T10:43:28.523Z,1.83
2018-08-11T10:48:32.045Z,3.50
2018-08-11T10:53:36.221Z,3.07
2018-08-11T10:58:40.416Z,2.80
2018-08-11T11:03:44.353Z,3.20
2018-08-11T11:08:47.900Z,4.60
2018-08-11T11:13:51.468Z,5.17
2018-08-11T11:18:55.078Z,3.80
2018-08-11T11:24:01.036Z,3.03
2018-08-11T11:29:04.605Z,6.43
2018-08-11T11:34:08.655Z,3.13
2018-08-11T11:39:12.280Z,2.53
2018-08-11T11:44:17.048Z,6.73
2018-08-11T11:49:22.169Z,1.73
2018-08-11T11:54:25.797Z,2.90
2018-08-11T11:59:29.421Z,5.57
2018-08-11T12:04:32.969Z,2.60
2018-08-11T12:09:36.533Z,4.13
2018-08-11T12:14:40.824Z,4.50
2018-08-11T12:19:44.533Z,2.40
2018-08-11T12:24:49.453Z,1.87
2018-08-11T12:29:55.935Z,2.90
2018-08-11T12:35:00.341Z,4.17
2018-08-11T12:40:05.357Z,4.07
2018-08-11T12:45:09.179Z,4.40
2018-08-11T12:50:12.748Z,2.03
2018-08-11T12:55:16.398Z,2.93
2018-08-11T13:00:29.550Z,3.27
2018-08-11T13:05:33.848Z,2.13
2018-08-11T13:10:37.463Z,2.40
2018-08-11T13:15:41.399Z,3.10
2018-08-11T13:20:45.805Z,4.20
2018-08-11T13:25:49.674Z,3.27
2018-08-11T13:31:00.076Z,4.23
2018-08-11T13:36:03.748Z,5.10
2018-08-11T13:41:08.259Z,1.77
2018-08-11T13:46:11.924Z,2.37
2018-08-11T13:51:15.632Z,2.13
2018-08-11T13:56:19.510Z,2.17
2018-08-11T14:01:23.658Z,1.80
2018-08-11T14:06:27.287Z,1.53
2018-08-11T14:11:31.367Z,1.77
2018-08-11T14:16:36.450Z,3.27
2018-08-11T14:21:40.083Z,3.07
2018-08-11T14:26:43.663Z,4.73
2018-08-11T14:31:47.473Z,2.87
2018-08-11T14:36:51.134Z,2.33
2018-08-11T14:41:54.958Z,3.50
2018-08-11T14:46:58.574Z,1.40
2018-08-11T14:52:02.179Z,2.03
2018-08-11T14:57:06.131Z,2.77
2018-08-11T15:02:09.713Z,1.67
2018-08-11T15:07:22.813Z,2.40
2018-08-11T15:12:26.415Z,3.67
2018-08-11T15:17:30.244Z,2.37
2018-08-11T15:22:33.779Z,2.27
2018-08-11T15:27:38.289Z,2.73
2018-08-11T15:32:41.861Z,2.40
2018-08-11T15:37:45.533Z,0.93
2018-08-11T15:42:49.612Z,1.37
2018-08-11T15:47:53.246Z,1.53
2018-08-11T15:52:57.042Z,1.43
2018-08-11T15:58:00.968Z,1.40
2018-08-11T16:03:04.551Z,2.10
2018-08-11T16:08:08.132Z,1.00
2018-08-11T16:13:12.196Z,4.60
2018-08-11T16:18:16.497Z,2.03
2018-08-11T16:23:20.017Z,3.50
2018-08-11T16:28:24.566Z,5.47
2018-08-11T16:33:28.742Z,2.83
2018-08-11T16:38:32.514Z,3.17
2018-08-11T16:43:48.317Z,0.77
2018-08-11T16:48:52.120Z,1.90
2018-08-11T16:53:56.203Z,1.90
2018-08-11T16:59:00.218Z,2.30
2018-08-11T17:04:03.854Z,2.07
2018-08-11T17:09:10.171Z,7.00
2018-08-11T17:14:14.828Z,1.27
2018-08-11T17:19:18.790Z,2.97
2018-08-11T17:24:22.508Z,2.47
2018-08-11T17:29:26.272Z,1.10
2018-08-11T17:34:30.086Z,1.00
2018-08-11T17:39:34.009Z,1.13
2018-08-11T17:44:37.651Z,1.20
2018-08-11T17:49:41.401Z,1.63
2018-08-11T17:54:45.324Z,0.93
2018-08-11T17:59:50.013Z,1.30
2018-08-11T18:04:54.780Z,1.80
2018-08-11T18:09:59.201Z,0.57
2018-08-11T18:15:03.605Z,1.67
2018-08-11T18:20:07.955Z,4.67
2018-08-11T18:25:11.781Z,1.60
2018-08-11T18:30:32.549Z,3.73
2018-08-11T18:35:36.209Z,2.23
2018-08-11T18:40:40.242Z,1.60
2018-08-11T18:45:43.895Z,0.97
2018-08-11T18:50:47.529Z,1.67
2018-08-11T18:55:51.382Z,0.73
2018-08-11T19:00:55.055Z,3.47
2018-08-11T19:05:58.741Z,6.00
2018-08-11T19:11:02.503Z,0.93
2018-08-11T19:16:06.551Z,4.33
2018-08-11T19:21:10.323Z,1.97
2018-08-11T19:26:16.742Z,3.00
2018-08-11T19:31:20.384Z,0.77
2018-08-11T19:36:24.061Z,0.63
2018-08-11T19:41:27.737Z,2.43
2018-08-11T19:46:31.890Z,3.63
2018-08-11T19:51:36.160Z,2.33
2018-08-11T19:56:39.982Z,2.43
2018-08-11T20:01:43.669Z,1.97
2018-08-11T20:06:47.542Z,3.17
2018-08-11T20:11:51.198Z,1.63
2018-08-11T20:16:54.931Z,1.37
2018-08-11T20:21:58.767Z,1.37
2018-08-11T20:27:02.480Z,1.30
2018-08-11T20:32:06.650Z,1.73
2018-08-11T20:37:11.075Z,1.13
2018-08-11T20:42:16.424Z,1.50
2018-08-11T20:47:20.221Z,1.80
2018-08-11T20:52:23.807Z,0.53
2018-08-11T20:57:27.476Z,0.90
2018-08-11T21:02:31.151Z,1.43
2018-08-11T21:07:34.985Z,3.07
2018-08-11T21:12:38.769Z,2.83
2018-08-11T21:17:42.649Z,2.37
2018-08-11T21:22:46.378Z,1.23
2018-08-11T21:33:02.025Z,1.37
2018-08-11T21:38:06.198Z,1.63
2018-08-11T21:43:10.567Z,4.53
2018-08-11T21:48:14.360Z,1.63
2018-08-11T21:53:18.047Z,1.57
2018-08-11T21:58:21.785Z,4.67
2018-08-11T22:03:26.446Z,1.23
2018-08-11T22:08:30.685Z,3.97
2018-08-11T22:13:34.574Z,4.83
2018-08-11T22:18:39.490Z,4.00
2018-08-11T22:23:43.138Z,1.20
2018-08-11T22:28:46.925Z,2.80
2018-08-11T22:33:50.481Z,1.70
2018-08-11T22:38:54.076Z,1.40
2018-08-11T22:43:57.754Z,1.20
2018-08-11T22:49:03.000Z,2.57
2018-08-11T22:54:07.667Z,1.50
2018-08-11T22:59:11.265Z,1.97
2018-08-11T23:04:14.977Z,3.43
2018-08-11T23:09:18.605Z,5.63
2018-08-11T23:14:22.536Z,2.17
2018-08-11T23:19:27.170Z,5.10
2018-08-11T23:24:30.724Z,2.30
2018-08-11T23:29:35.247Z,1.80
2018-08-11T23:34:54.168Z,3.97
2018-08-11T23:39:57.875Z,1.50
2018-08-11T23:45:01.394Z,2.40
2018-08-11T23:50:06.256Z,3.73
2018-08-11T23:55:11.163Z,1.20
